TimeICT,TemperatureF,Dew PointF,Humidity,Sea Level PressureIn,VisibilityMPH,Wind Direction,Wind SpeedMPH,Gust SpeedMPH,PrecipitationIn,Events,Conditions,WindDirDegrees,DateUTC
6:00 AM,78.8,75.2,89,29.86,4.3,NE,3.5,-,N/A,,Haze,50,2012-10-09 23:00:00
6:30 AM,78.8,75.2,89,29.89,4.3,NE,2.3,-,N/A,,Haze,40,2012-10-09 23:30:00
7:00 AM,79,77,91,29.86,6,East,2.2,,,,Mostly Cloudy,90,2012-10-10 00:00:00
7:00 AM,80.6,75.2,84,29.89,4.3,ENE,4.6,-,N/A,,Haze,70,2012-10-10 00:00:00
7:30 AM,80.6,75.2,84,29.92,4.3,East,5.8,-,N/A,,Haze,90,2012-10-10 00:30:00
8:00 AM,82.4,75.2,79,29.92,5.6,East,6.9,-,N/A,,Scattered Clouds,100,2012-10-10 01:00:00
8:30 AM,82.4,75.2,79,29.92,6.2,ESE,6.9,-,N/A,,Scattered Clouds,110,2012-10-10 01:30:00
9:00 AM,82.4,75.2,79,29.92,6.2,SE,6.9,-,N/A,,Scattered Clouds,130,2012-10-10 02:00:00
9:30 AM,84.2,73.4,70,29.92,6.2,Calm,Calm,-,N/A,,Scattered Clouds,0,2012-10-10 02:30:00
10:00 AM,84.2,75.2,74,29.92,6.2,NNW,6.9,-,N/A,,Scattered Clouds,330,2012-10-10 03:00:00
10:30 AM,86.0,75.2,70,29.89,6.2,WSW,8.1,-,N/A,,Scattered Clouds,240,2012-10-10 03:30:00
11:00 AM,86.0,73.4,66,29.89,6.2,South,3.5,-,N/A,,Scattered Clouds,180,2012-10-10 04:00:00
11:30 AM,86.0,73.4,66,29.89,6.2,NNW,5.8,-,N/A,,Scattered Clouds,330,2012-10-10 04:30:00
12:00 PM,87.8,73.4,62,29.86,6.2,Variable,2.3,-,N/A,,Scattered Clouds,0,2012-10-10 05:00:00
12:30 PM,87.8,73.4,62,29.86,6.2,South,2.3,-,N/A,,Scattered Clouds,190,2012-10-10 05:30:00
1:00 PM,89.6,69.8,52,29.83,6.2,NNE,5.8,-,N/A,,Scattered Clouds,30,2012-10-10 06:00:00
1:30 PM,89.6,68.0,49,29.83,6.2,ENE,5.8,-,N/A,,Scattered Clouds,60,2012-10-10 06:30:00
2:00 PM,89.6,68.0,49,29.80,6.2,ENE,17.3,-,N/A,,Scattered Clouds,60,2012-10-10 07:00:00
2:30 PM,89.6,69.8,52,29.80,6.2,ENE,5.8,-,N/A,,Scattered Clouds,60,2012-10-10 07:30:00
3:00 PM,89.6,69.8,52,29.77,6.2,ENE,9.2,-,N/A,,Scattered Clouds,60,2012-10-10 08:00:00
3:30 PM,89.6,69.8,52,29.77,6.2,ENE,6.9,-,N/A,,Scattered Clouds,60,2012-10-10 08:30:00
4:00 PM,89.6,71.6,55,29.77,6.2,ENE,11.5,-,N/A,,Scattered Clouds,60,2012-10-10 09:00:00
4:30 PM,89.6,69.8,52,29.77,6.2,NNE,11.5,-,N/A,,Scattered Clouds,30,2012-10-10 09:30:00
5:00 PM,89.6,69.8,52,29.77,6.2,North,5.8,-,N/A,,Scattered Clouds,360,2012-10-10 10:00:00
5:30 PM,87.8,69.8,55,29.80,6.2,ENE,5.8,-,N/A,,Partly Cloudy,60,2012-10-10 10:30:00
6:00 PM,86.0,69.8,58,29.80,6.2,ENE,5.8,-,N/A,,Partly Cloudy,60,2012-10-10 11:00:00
6:30 PM,86.0,69.8,58,29.80,6.2,ENE,4.6,-,N/A,,Scattered Clouds,60,2012-10-10 11:30:00
7:00 PM,86.0,71.6,62,29.80,5.6,NNE,3.5,-,N/A,,Scattered Clouds,30,2012-10-10 12:00:00
7:30 PM,86.0,73.4,66,29.83,5.6,NNW,5.8,-,N/A,,Scattered Clouds,330,2012-10-10 12:30:00
8:00 PM,86.0,75.2,70,29.83,5.6,NNW,4.6,-,N/A,,Scattered Clouds,330,2012-10-10 13:00:00
8:30 PM,86.0,75.2,70,29.86,6.2,NW,3.5,-,N/A,,Scattered Clouds,310,2012-10-10 13:30:00
9:00 PM,86.0,75.2,70,29.86,6.2,NNW,2.3,-,N/A,,Scattered Clouds,330,2012-10-10 14:00:00
9:30 PM,84.2,75.2,74,29.86,6.2,North,2.3,-,N/A,,Scattered Clouds,360,2012-10-10 14:30:00
10:00 PM,84.2,75.2,74,29.86,6.2,NNW,2.3,-,N/A,,Partly Cloudy,340,2012-10-10 15:00:00
10:30 PM,84.2,75.2,74,29.86,6.2,NNW,2.3,-,N/A,,Partly Cloudy,330,2012-10-10 15:30:00
11:00 PM,84.2,75.2,74,29.86,6.2,NW,2.3,-,N/A,,Partly Cloudy,320,2012-10-10 16:00:00
11:30 PM,84.2,75.2,74,29.86,6.2,NNW,2.3,-,N/A,,Partly Cloudy,330,2012-10-10 16:30:00